sensor_id;sensor_type;location;lat;lon;timestamp;P1;durP1;ratioP1;P2;durP2;ratioP2
37305;SDS011;23193;42.656;21.170;2023-06-22T00:01:52;32.60;;;22.05;;
37305;SDS011;23193;42.656;21.170;2023-06-22T00:04:18;41.03;;;21.58;;
37305;SDS011;23193;42.656;21.170;2023-06-22T00:06:44;28.33;;;20.35;;
37305;SDS011;23193;42.656;21.170;2023-06-22T00:09:11;27.30;;;19.98;;
37305;SDS011;23193;42.656;21.170;2023-06-22T00:11:37;30.60;;;19.90;;
37305;SDS011;23193;42.656;21.170;2023-06-22T00:14:04;21.20;;;17.30;;
37305;SDS011;23193;42.656;21.170;2023-06-22T00:16:31;24.52;;;17.77;;
37305;SDS011;23193;42.656;21.170;2023-06-22T00:18:58;25.05;;;18.58;;
37305;SDS011;23193;42.656;21.170;2023-06-22T00:21:25;26.77;;;18.73;;
37305;SDS011;23193;42.656;21.170;2023-06-22T00:23:52;25.58;;;18.33;;
37305;SDS011;23193;42.656;21.170;2023-06-22T00:26:18;27.23;;;18.33;;
37305;SDS011;23193;42.656;21.170;2023-06-22T00:28:44;22.83;;;18.15;;
37305;SDS011;23193;42.656;21.170;2023-06-22T00:31:10;29.35;;;18.98;;
37305;SDS011;23193;42.656;21.170;2023-06-22T00:33:36;24.33;;;19.65;;
37305;SDS011;23193;42.656;21.170;2023-06-22T00:36:03;26.08;;;19.88;;
37305;SDS011;23193;42.656;21.170;2023-06-22T00:38:29;26.67;;;20.13;;
37305;SDS011;23193;42.656;21.170;2023-06-22T00:40:55;31.20;;;20.65;;
37305;SDS011;23193;42.656;21.170;2023-06-22T00:43:21;27.08;;;22.08;;
37305;SDS011;23193;42.656;21.170;2023-06-22T00:45:47;34.95;;;22.83;;
37305;SDS011;23193;42.656;21.170;2023-06-22T00:48:14;32.08;;;21.95;;
37305;SDS011;23193;42.656;21.170;2023-06-22T00:50:40;28.45;;;21.52;;
37305;SDS011;23193;42.656;21.170;2023-06-22T00:53:07;40.55;;;21.80;;
37305;SDS011;23193;42.656;21.170;2023-06-22T00:55:44;30.55;;;21.83;;
37305;SDS011;23193;42.656;21.170;2023-06-22T00:58:12;30.38;;;21.75;;
37305;SDS011;23193;42.656;21.170;2023-06-22T01:00:41;26.90;;;21.20;;
37305;SDS011;23193;42.656;21.170;2023-06-22T01:03:08;33.30;;;22.60;;
37305;SDS011;23193;42.656;21.170;2023-06-22T01:05:34;33.88;;;23.58;;
37305;SDS011;23193;42.656;21.170;2023-06-22T01:13:22;24.63;;;19.83;;
37305;SDS011;23193;42.656;21.170;2023-06-22T01:15:51;27.20;;;20.02;;
37305;SDS011;23193;42.656;21.170;2023-06-22T01:18:19;27.80;;;18.83;;
37305;SDS011;23193;42.656;21.170;2023-06-22T01:20:46;26.38;;;19.17;;
37305;SDS011;23193;42.656;21.170;2023-06-22T01:25:48;26.90;;;18.98;;
37305;SDS011;23193;42.656;21.170;2023-06-22T01:30:48;30.15;;;19.67;;
37305;SDS011;23193;42.656;21.170;2023-06-22T01:33:15;26.25;;;19.23;;
37305;SDS011;23193;42.656;21.170;2023-06-22T01:35:42;23.10;;;18.85;;
37305;SDS011;23193;42.656;21.170;2023-06-22T01:38:09;23.85;;;20.00;;
37305;SDS011;23193;42.656;21.170;2023-06-22T01:40:35;24.83;;;18.40;;
37305;SDS011;23193;42.656;21.170;2023-06-22T01:43:02;21.83;;;18.10;;
37305;SDS011;23193;42.656;21.170;2023-06-22T01:45:29;29.63;;;19.17;;
37305;SDS011;23193;42.656;21.170;2023-06-22T01:47:55;24.60;;;18.73;;
37305;SDS011;23193;42.656;21.170;2023-06-22T01:50:22;26.33;;;19.92;;
37305;SDS011;23193;42.656;21.170;2023-06-22T01:52:48;24.35;;;19.30;;
37305;SDS011;23193;42.656;21.170;2023-06-22T01:55:14;26.95;;;19.85;;
37305;SDS011;23193;42.656;21.170;2023-06-22T01:57:40;32.00;;;20.10;;
37305;SDS011;23193;42.656;21.170;2023-06-22T02:00:11;27.35;;;20.25;;
37305;SDS011;23193;42.656;21.170;2023-06-22T02:05:08;28.45;;;19.73;;
37305;SDS011;23193;42.656;21.170;2023-06-22T02:07:52;21.77;;;18.48;;
37305;SDS011;23193;42.656;21.170;2023-06-22T02:10:22;27.55;;;19.00;;
37305;SDS011;23193;42.656;21.170;2023-06-22T02:12:50;24.77;;;18.75;;
37305;SDS011;23193;42.656;21.170;2023-06-22T02:15:17;22.05;;;18.05;;
37305;SDS011;23193;42.656;21.170;2023-06-22T02:17:43;25.65;;;17.65;;
37305;SDS011;23193;42.656;21.170;2023-06-22T02:20:13;26.83;;;19.15;;
37305;SDS011;23193;42.656;21.170;2023-06-22T02:22:40;24.75;;;18.67;;
37305;SDS011;23193;42.656;21.170;2023-06-22T02:25:06;24.30;;;19.83;;
37305;SDS011;23193;42.656;21.170;2023-06-22T02:27:32;25.48;;;18.00;;
37305;SDS011;23193;42.656;21.170;2023-06-22T02:29:58;26.77;;;19.25;;
37305;SDS011;23193;42.656;21.170;2023-06-22T02:32:24;27.20;;;19.38;;
37305;SDS011;23193;42.656;21.170;2023-06-22T02:34:52;29.10;;;19.38;;
37305;SDS011;23193;42.656;21.170;2023-06-22T02:37:18;22.67;;;18.02;;
37305;SDS011;23193;42.656;21.170;2023-06-22T02:39:44;22.48;;;19.58;;
37305;SDS011;23193;42.656;21.170;2023-06-22T02:42:10;25.35;;;19.98;;
37305;SDS011;23193;42.656;21.170;2023-06-22T02:44:36;26.85;;;19.45;;
37305;SDS011;23193;42.656;21.170;2023-06-22T02:47:03;23.00;;;18.58;;
37305;SDS011;23193;42.656;21.170;2023-06-22T02:49:29;30.15;;;20.10;;
37305;SDS011;23193;42.656;21.170;2023-06-22T02:51:55;23.67;;;19.55;;
37305;SDS011;23193;42.656;21.170;2023-06-22T02:54:21;29.02;;;21.08;;
37305;SDS011;23193;42.656;21.170;2023-06-22T02:56:47;25.23;;;20.52;;
37305;SDS011;23193;42.656;21.170;2023-06-22T02:59:15;24.27;;;21.55;;
37305;SDS011;23193;42.656;21.170;2023-06-22T03:01:42;22.88;;;20.38;;
37305;SDS011;23193;42.656;21.170;2023-06-22T03:04:08;27.17;;;22.13;;
37305;SDS011;23193;42.656;21.170;2023-06-22T03:06:35;34.15;;;26.52;;
37305;SDS011;23193;42.656;21.170;2023-06-22T03:09:03;32.05;;;25.10;;
37305;SDS011;23193;42.656;21.170;2023-06-22T03:11:30;29.63;;;24.15;;
37305;SDS011;23193;42.656;21.170;2023-06-22T03:13:56;31.23;;;23.80;;
37305;SDS011;23193;42.656;21.170;2023-06-22T03:16:22;31.17;;;22.85;;
37305;SDS011;23193;42.656;21.170;2023-06-22T03:18:48;26.77;;;23.52;;
37305;SDS011;23193;42.656;21.170;2023-06-22T03:21:14;32.30;;;23.08;;
37305;SDS011;23193;42.656;21.170;2023-06-22T03:23:41;26.58;;;22.88;;
37305;SDS011;23193;42.656;21.170;2023-06-22T03:26:08;29.23;;;22.60;;
37305;SDS011;23193;42.656;21.170;2023-06-22T03:28:35;29.80;;;23.48;;
37305;SDS011;23193;42.656;21.170;2023-06-22T03:31:01;25.88;;;22.45;;
37305;SDS011;23193;42.656;21.170;2023-06-22T03:33:28;30.75;;;23.33;;
37305;SDS011;23193;42.656;21.170;2023-06-22T03:35:55;26.17;;;23.45;;
37305;SDS011;23193;42.656;21.170;2023-06-22T03:38:21;26.60;;;23.25;;
37305;SDS011;23193;42.656;21.170;2023-06-22T03:40:47;30.30;;;22.75;;
37305;SDS011;23193;42.656;21.170;2023-06-22T03:43:13;25.25;;;22.42;;
37305;SDS011;23193;42.656;21.170;2023-06-22T03:45:39;32.90;;;24.02;;
37305;SDS011;23193;42.656;21.170;2023-06-22T03:48:05;26.77;;;22.38;;
37305;SDS011;23193;42.656;21.170;2023-06-22T03:50:32;29.17;;;22.27;;
37305;SDS011;23193;42.656;21.170;2023-06-22T03:52:58;27.40;;;22.52;;
37305;SDS011;23193;42.656;21.170;2023-06-22T03:55:24;34.78;;;23.83;;
37305;SDS011;23193;42.656;21.170;2023-06-22T03:57:50;33.45;;;25.73;;
37305;SDS011;23193;42.656;21.170;2023-06-22T04:00:18;36.90;;;28.52;;
37305;SDS011;23193;42.656;21.170;2023-06-22T04:02:44;43.30;;;30.70;;
37305;SDS011;23193;42.656;21.170;2023-06-22T04:05:10;48.13;;;34.00;;
37305;SDS011;23193;42.656;21.170;2023-06-22T04:07:36;49.40;;;34.40;;
37305;SDS011;23193;42.656;21.170;2023-06-22T04:10:03;45.95;;;33.45;;
37305;SDS011;23193;42.656;21.170;2023-06-22T04:12:29;47.05;;;32.72;;
37305;SDS011;23193;42.656;21.170;2023-06-22T04:14:56;41.67;;;32.38;;
37305;SDS011;23193;42.656;21.170;2023-06-22T04:17:22;46.53;;;33.35;;
37305;SDS011;23193;42.656;21.170;2023-06-22T04:19:50;43.20;;;31.90;;
37305;SDS011;23193;42.656;21.170;2023-06-22T04:22:16;39.33;;;31.30;;
37305;SDS011;23193;42.656;21.170;2023-06-22T04:24:42;41.13;;;32.00;;
37305;SDS011;23193;42.656;21.170;2023-06-22T04:27:08;45.53;;;31.95;;
37305;SDS011;23193;42.656;21.170;2023-06-22T04:29:34;35.75;;;27.77;;
37305;SDS011;23193;42.656;21.170;2023-06-22T04:32:01;43.30;;;25.45;;
37305;SDS011;23193;42.656;21.170;2023-06-22T04:34:30;29.48;;;22.70;;
37305;SDS011;23193;42.656;21.170;2023-06-22T04:36:56;42.38;;;24.50;;
37305;SDS011;23193;42.656;21.170;2023-06-22T04:39:22;29.75;;;22.15;;
37305;SDS011;23193;42.656;21.170;2023-06-22T04:41:49;26.55;;;22.05;;
37305;SDS011;23193;42.656;21.170;2023-06-22T04:44:19;24.42;;;20.95;;
37305;SDS011;23193;42.656;21.170;2023-06-22T04:46:58;31.40;;;21.13;;
37305;SDS011;23193;42.656;21.170;2023-06-22T04:49:25;28.58;;;20.98;;
37305;SDS011;23193;42.656;21.170;2023-06-22T04:52:05;25.20;;;20.88;;
37305;SDS011;23193;42.656;21.170;2023-06-22T04:54:31;26.90;;;20.52;;
37305;SDS011;23193;42.656;21.170;2023-06-22T04:57:01;26.65;;;22.00;;
37305;SDS011;23193;42.656;21.170;2023-06-22T04:59:28;29.13;;;21.98;;
37305;SDS011;23193;42.656;21.170;2023-06-22T05:01:58;32.35;;;21.95;;
37305;SDS011;23193;42.656;21.170;2023-06-22T05:04:25;31.48;;;22.67;;
37305;SDS011;23193;42.656;21.170;2023-06-22T05:06:52;29.20;;;21.25;;
37305;SDS011;23193;42.656;21.170;2023-06-22T05:09:19;28.42;;;22.55;;
37305;SDS011;23193;42.656;21.170;2023-06-22T05:11:45;28.83;;;22.33;;
37305;SDS011;23193;42.656;21.170;2023-06-22T05:14:11;27.35;;;21.83;;
37305;SDS011;23193;42.656;21.170;2023-06-22T05:16:38;26.63;;;21.58;;
37305;SDS011;23193;42.656;21.170;2023-06-22T05:19:04;40.33;;;26.42;;
37305;SDS011;23193;42.656;21.170;2023-06-22T05:21:30;46.83;;;35.60;;
37305;SDS011;23193;42.656;21.170;2023-06-22T05:23:57;36.67;;;28.40;;
37305;SDS011;23193;42.656;21.170;2023-06-22T05:26:26;42.15;;;26.00;;
37305;SDS011;23193;42.656;21.170;2023-06-22T05:28:52;38.83;;;25.50;;
37305;SDS011;23193;42.656;21.170;2023-06-22T05:31:19;37.78;;;25.75;;
37305;SDS011;23193;42.656;21.170;2023-06-22T05:33:46;39.40;;;24.35;;
37305;SDS011;23193;42.656;21.170;2023-06-22T05:36:12;43.10;;;25.23;;
37305;SDS011;23193;42.656;21.170;2023-06-22T05:38:39;31.45;;;24.25;;
37305;SDS011;23193;42.656;21.170;2023-06-22T05:41:06;31.20;;;22.08;;
37305;SDS011;23193;42.656;21.170;2023-06-22T05:43:33;31.92;;;22.48;;
37305;SDS011;23193;42.656;21.170;2023-06-22T05:46:00;34.42;;;21.50;;
37305;SDS011;23193;42.656;21.170;2023-06-22T05:48:26;25.52;;;20.10;;
37305;SDS011;23193;42.656;21.170;2023-06-22T05:50:52;29.60;;;18.90;;
37305;SDS011;23193;42.656;21.170;2023-06-22T05:53:19;23.73;;;19.23;;
37305;SDS011;23193;42.656;21.170;2023-06-22T05:55:45;23.60;;;17.67;;
37305;SDS011;23193;42.656;21.170;2023-06-22T05:58:11;25.42;;;17.42;;
37305;SDS011;23193;42.656;21.170;2023-06-22T06:00:41;23.90;;;17.35;;
37305;SDS011;23193;42.656;21.170;2023-06-22T06:03:08;23.05;;;17.98;;
37305;SDS011;23193;42.656;21.170;2023-06-22T06:05:34;27.00;;;19.15;;
37305;SDS011;23193;42.656;21.170;2023-06-22T06:08:01;25.13;;;17.85;;
37305;SDS011;23193;42.656;21.170;2023-06-22T06:10:28;30.38;;;18.65;;
37305;SDS011;23193;42.656;21.170;2023-06-22T06:12:57;29.17;;;18.83;;
37305;SDS011;23193;42.656;21.170;2023-06-22T06:15:23;29.02;;;17.33;;
37305;SDS011;23193;42.656;21.170;2023-06-22T06:17:50;24.20;;;19.25;;
37305;SDS011;23193;42.656;21.170;2023-06-22T06:20:18;31.48;;;19.58;;
37305;SDS011;23193;42.656;21.170;2023-06-22T06:22:45;25.20;;;17.48;;
37305;SDS011;23193;42.656;21.170;2023-06-22T06:25:11;19.05;;;16.80;;
37305;SDS011;23193;42.656;21.170;2023-06-22T06:27:43;20.98;;;16.40;;
37305;SDS011;23193;42.656;21.170;2023-06-22T06:30:10;21.40;;;17.23;;
37305;SDS011;23193;42.656;21.170;2023-06-22T06:32:37;26.00;;;17.88;;
37305;SDS011;23193;42.656;21.170;2023-06-22T06:35:04;20.00;;;16.83;;
37305;SDS011;23193;42.656;21.170;2023-06-22T06:37:31;25.75;;;17.67;;
37305;SDS011;23193;42.656;21.170;2023-06-22T06:39:57;22.58;;;16.80;;
37305;SDS011;23193;42.656;21.170;2023-06-22T06:42:23;21.38;;;17.00;;
37305;SDS011;23193;42.656;21.170;2023-06-22T06:44:49;26.42;;;16.25;;
37305;SDS011;23193;42.656;21.170;2023-06-22T06:47:16;24.08;;;16.95;;
37305;SDS011;23193;42.656;21.170;2023-06-22T06:49:42;23.88;;;17.10;;
37305;SDS011;23193;42.656;21.170;2023-06-22T06:52:08;26.45;;;18.00;;
37305;SDS011;23193;42.656;21.170;2023-06-22T06:54:34;24.33;;;17.88;;
37305;SDS011;23193;42.656;21.170;2023-06-22T06:57:01;24.48;;;17.25;;
37305;SDS011;23193;42.656;21.170;2023-06-22T06:59:30;29.92;;;17.23;;
37305;SDS011;23193;42.656;21.170;2023-06-22T07:01:56;23.75;;;16.27;;
37305;SDS011;23193;42.656;21.170;2023-06-22T07:04:22;21.35;;;16.30;;
37305;SDS011;23193;42.656;21.170;2023-06-22T07:06:48;27.58;;;17.73;;
37305;SDS011;23193;42.656;21.170;2023-06-22T07:09:14;24.67;;;18.10;;
37305;SDS011;23193;42.656;21.170;2023-06-22T07:11:40;21.90;;;16.73;;
37305;SDS011;23193;42.656;21.170;2023-06-22T07:14:06;20.85;;;16.45;;
37305;SDS011;23193;42.656;21.170;2023-06-22T07:16:33;19.63;;;16.20;;
37305;SDS011;23193;42.656;21.170;2023-06-22T07:18:59;23.15;;;16.33;;
37305;SDS011;23193;42.656;21.170;2023-06-22T07:21:25;18.08;;;15.18;;
37305;SDS011;23193;42.656;21.170;2023-06-22T07:23:51;22.27;;;16.08;;
37305;SDS011;23193;42.656;21.170;2023-06-22T07:26:19;19.45;;;15.23;;
37305;SDS011;23193;42.656;21.170;2023-06-22T07:28:45;19.27;;;15.60;;
37305;SDS011;23193;42.656;21.170;2023-06-22T07:31:12;18.20;;;15.52;;
37305;SDS011;23193;42.656;21.170;2023-06-22T07:33:41;21.02;;;14.80;;
37305;SDS011;23193;42.656;21.170;2023-06-22T07:36:07;20.17;;;15.43;;
37305;SDS011;23193;42.656;21.170;2023-06-22T07:38:34;22.95;;;15.10;;
37305;SDS011;23193;42.656;21.170;2023-06-22T07:41:00;23.67;;;14.18;;
37305;SDS011;23193;42.656;21.170;2023-06-22T07:43:27;22.58;;;14.70;;
37305;SDS011;23193;42.656;21.170;2023-06-22T07:45:55;24.05;;;14.40;;
37305;SDS011;23193;42.656;21.170;2023-06-22T07:48:21;14.15;;;11.93;;
37305;SDS011;23193;42.656;21.170;2023-06-22T07:50:47;18.63;;;12.73;;
37305;SDS011;23193;42.656;21.170;2023-06-22T07:53:14;21.45;;;13.48;;
37305;SDS011;23193;42.656;21.170;2023-06-22T07:55:40;19.52;;;13.65;;
37305;SDS011;23193;42.656;21.170;2023-06-22T07:58:06;17.85;;;12.88;;
37305;SDS011;23193;42.656;21.170;2023-06-22T08:00:33;20.90;;;14.63;;
37305;SDS011;23193;42.656;21.170;2023-06-22T08:03:02;28.30;;;13.47;;
37305;SDS011;23193;42.656;21.170;2023-06-22T08:05:30;16.63;;;11.32;;
37305;SDS011;23193;42.656;21.170;2023-06-22T08:07:56;17.75;;;11.25;;
37305;SDS011;23193;42.656;21.170;2023-06-22T08:10:23;15.80;;;11.35;;
37305;SDS011;23193;42.656;21.170;2023-06-22T08:12:49;12.60;;;9.52;;
37305;SDS011;23193;42.656;21.170;2023-06-22T08:15:16;13.85;;;9.65;;
37305;SDS011;23193;42.656;21.170;2023-06-22T08:17:43;15.48;;;10.65;;
37305;SDS011;23193;42.656;21.170;2023-06-22T08:20:13;19.77;;;9.73;;
37305;SDS011;23193;42.656;21.170;2023-06-22T08:22:43;22.38;;;9.95;;
37305;SDS011;23193;42.656;21.170;2023-06-22T08:25:10;14.32;;;8.57;;
37305;SDS011;23193;42.656;21.170;2023-06-22T08:27:36;18.17;;;10.35;;
37305;SDS011;23193;42.656;21.170;2023-06-22T08:30:02;10.65;;;8.50;;
37305;SDS011;23193;42.656;21.170;2023-06-22T08:32:28;10.27;;;8.60;;
37305;SDS011;23193;42.656;21.170;2023-06-22T08:34:55;12.93;;;8.60;;
37305;SDS011;23193;42.656;21.170;2023-06-22T08:37:21;10.23;;;8.43;;
37305;SDS011;23193;42.656;21.170;2023-06-22T08:39:56;19.45;;;8.50;;
37305;SDS011;23193;42.656;21.170;2023-06-22T08:42:22;36.78;;;9.55;;
37305;SDS011;23193;42.656;21.170;2023-06-22T08:44:49;12.38;;;7.85;;
37305;SDS011;23193;42.656;21.170;2023-06-22T08:47:16;13.98;;;7.63;;
37305;SDS011;23193;42.656;21.170;2023-06-22T08:49:42;10.70;;;8.32;;
37305;SDS011;23193;42.656;21.170;2023-06-22T08:52:08;16.58;;;7.88;;
37305;SDS011;23193;42.656;21.170;2023-06-22T08:54:34;15.38;;;8.70;;
37305;SDS011;23193;42.656;21.170;2023-06-22T08:57:00;12.13;;;8.45;;
37305;SDS011;23193;42.656;21.170;2023-06-22T08:59:26;13.10;;;9.30;;
37305;SDS011;23193;42.656;21.170;2023-06-22T09:01:53;13.13;;;8.23;;
37305;SDS011;23193;42.656;21.170;2023-06-22T09:04:19;16.70;;;7.95;;
37305;SDS011;23193;42.656;21.170;2023-06-22T09:06:47;11.48;;;7.78;;
37305;SDS011;23193;42.656;21.170;2023-06-22T09:09:15;15.10;;;9.60;;
37305;SDS011;23193;42.656;21.170;2023-06-22T09:11:42;12.77;;;8.27;;
37305;SDS011;23193;42.656;21.170;2023-06-22T09:14:08;13.77;;;9.88;;
37305;SDS011;23193;42.656;21.170;2023-06-22T09:16:34;18.08;;;8.13;;
37305;SDS011;23193;42.656;21.170;2023-06-22T09:19:01;11.52;;;7.38;;
37305;SDS011;23193;42.656;21.170;2023-06-22T09:21:27;10.77;;;7.85;;
37305;SDS011;23193;42.656;21.170;2023-06-22T09:23:54;8.57;;;6.80;;
37305;SDS011;23193;42.656;21.170;2023-06-22T09:26:20;17.13;;;7.05;;
37305;SDS011;23193;42.656;21.170;2023-06-22T09:28:48;11.02;;;7.88;;
37305;SDS011;23193;42.656;21.170;2023-06-22T09:31:14;10.45;;;7.20;;
37305;SDS011;23193;42.656;21.170;2023-06-22T09:33:42;14.65;;;7.25;;
37305;SDS011;23193;42.656;21.170;2023-06-22T09:36:08;9.48;;;6.30;;
37305;SDS011;23193;42.656;21.170;2023-06-22T09:38:37;12.30;;;7.18;;
37305;SDS011;23193;42.656;21.170;2023-06-22T09:41:03;15.63;;;6.30;;
37305;SDS011;23193;42.656;21.170;2023-06-22T09:43:31;7.53;;;6.60;;
37305;SDS011;23193;42.656;21.170;2023-06-22T09:45:57;13.40;;;7.65;;
37305;SDS011;23193;42.656;21.170;2023-06-22T09:48:23;16.70;;;7.72;;
37305;SDS011;23193;42.656;21.170;2023-06-22T09:50:49;7.70;;;6.28;;
37305;SDS011;23193;42.656;21.170;2023-06-22T09:53:15;12.52;;;6.75;;
37305;SDS011;23193;42.656;21.170;2023-06-22T09:55:41;14.43;;;7.85;;
37305;SDS011;23193;42.656;21.170;2023-06-22T09:58:07;12.45;;;6.68;;
37305;SDS011;23193;42.656;21.170;2023-06-22T10:00:43;13.20;;;7.15;;
37305;SDS011;23193;42.656;21.170;2023-06-22T10:03:09;9.73;;;6.63;;
37305;SDS011;23193;42.656;21.170;2023-06-22T10:05:35;9.13;;;5.60;;
37305;SDS011;23193;42.656;21.170;2023-06-22T10:08:02;10.05;;;7.53;;
37305;SDS011;23193;42.656;21.170;2023-06-22T10:10:28;10.15;;;6.68;;
37305;SDS011;23193;42.656;21.170;2023-06-22T10:12:55;9.07;;;7.07;;
37305;SDS011;23193;42.656;21.170;2023-06-22T10:15:21;8.63;;;6.43;;
37305;SDS011;23193;42.656;21.170;2023-06-22T10:17:48;10.65;;;6.15;;
37305;SDS011;23193;42.656;21.170;2023-06-22T10:20:14;7.00;;;5.45;;
37305;SDS011;23193;42.656;21.170;2023-06-22T10:22:41;7.85;;;6.32;;
37305;SDS011;23193;42.656;21.170;2023-06-22T10:25:08;10.20;;;6.00;;
37305;SDS011;23193;42.656;21.170;2023-06-22T10:27:34;14.07;;;5.40;;
37305;SDS011;23193;42.656;21.170;2023-06-22T10:30:00;9.35;;;5.82;;
37305;SDS011;23193;42.656;21.170;2023-06-22T10:32:26;7.28;;;5.30;;
37305;SDS011;23193;42.656;21.170;2023-06-22T10:34:59;12.50;;;5.75;;
37305;SDS011;23193;42.656;21.170;2023-06-22T10:37:25;11.15;;;6.30;;
37305;SDS011;23193;42.656;21.170;2023-06-22T10:39:51;19.05;;;7.15;;
37305;SDS011;23193;42.656;21.170;2023-06-22T10:42:17;10.98;;;6.10;;
37305;SDS011;23193;42.656;21.170;2023-06-22T10:44:43;18.25;;;6.05;;
37305;SDS011;23193;42.656;21.170;2023-06-22T10:47:09;9.02;;;5.63;;
37305;SDS011;23193;42.656;21.170;2023-06-22T10:49:37;11.82;;;6.00;;
37305;SDS011;23193;42.656;21.170;2023-06-22T10:52:04;6.00;;;4.60;;
37305;SDS011;23193;42.656;21.170;2023-06-22T10:54:30;6.40;;;5.10;;
37305;SDS011;23193;42.656;21.170;2023-06-22T10:56:57;9.98;;;5.22;;
37305;SDS011;23193;42.656;21.170;2023-06-22T10:59:23;9.80;;;5.10;;
37305;SDS011;23193;42.656;21.170;2023-06-22T11:01:51;8.30;;;5.20;;
37305;SDS011;23193;42.656;21.170;2023-06-22T11:04:17;14.98;;;4.78;;
37305;SDS011;23193;42.656;21.170;2023-06-22T11:06:43;7.38;;;4.60;;
37305;SDS011;23193;42.656;21.170;2023-06-22T11:09:09;11.30;;;6.00;;
37305;SDS011;23193;42.656;21.170;2023-06-22T11:11:35;12.45;;;4.60;;
37305;SDS011;23193;42.656;21.170;2023-06-22T11:14:02;9.88;;;5.72;;
37305;SDS011;23193;42.656;21.170;2023-06-22T11:16:28;5.40;;;4.50;;
37305;SDS011;23193;42.656;21.170;2023-06-22T11:18:54;23.17;;;7.00;;
37305;SDS011;23193;42.656;21.170;2023-06-22T11:21:20;6.10;;;4.82;;
37305;SDS011;23193;42.656;21.170;2023-06-22T11:23:46;30.42;;;6.68;;
37305;SDS011;23193;42.656;21.170;2023-06-22T11:26:13;6.60;;;4.20;;
37305;SDS011;23193;42.656;21.170;2023-06-22T11:28:39;12.20;;;4.63;;
37305;SDS011;23193;42.656;21.170;2023-06-22T11:31:05;18.10;;;4.85;;
37305;SDS011;23193;42.656;21.170;2023-06-22T11:33:32;7.03;;;4.38;;
37305;SDS011;23193;42.656;21.170;2023-06-22T11:35:58;9.50;;;4.20;;
37305;SDS011;23193;42.656;21.170;2023-06-22T11:38:25;5.43;;;4.05;;
37305;SDS011;23193;42.656;21.170;2023-06-22T11:40:51;7.03;;;4.32;;
37305;SDS011;23193;42.656;21.170;2023-06-22T11:43:17;8.25;;;4.47;;
37305;SDS011;23193;42.656;21.170;2023-06-22T11:45:43;11.70;;;5.05;;
37305;SDS011;23193;42.656;21.170;2023-06-22T11:48:09;6.00;;;4.38;;
37305;SDS011;23193;42.656;21.170;2023-06-22T11:50:35;7.78;;;4.80;;
37305;SDS011;23193;42.656;21.170;2023-06-22T11:53:02;6.25;;;4.85;;
37305;SDS011;23193;42.656;21.170;2023-06-22T11:55:29;10.27;;;5.25;;
37305;SDS011;23193;42.656;21.170;2023-06-22T11:57:55;7.47;;;4.32;;
37305;SDS011;23193;42.656;21.170;2023-06-22T12:00:24;36.92;;;5.93;;
37305;SDS011;23193;42.656;21.170;2023-06-22T12:02:51;10.13;;;5.70;;
37305;SDS011;23193;42.656;21.170;2023-06-22T12:05:20;20.30;;;5.22;;
37305;SDS011;23193;42.656;21.170;2023-06-22T12:07:47;4.78;;;3.85;;
37305;SDS011;23193;42.656;21.170;2023-06-22T12:10:14;6.13;;;4.70;;
37305;SDS011;23193;42.656;21.170;2023-06-22T12:12:41;5.85;;;4.47;;
37305;SDS011;23193;42.656;21.170;2023-06-22T12:15:08;11.73;;;4.50;;
37305;SDS011;23193;42.656;21.170;2023-06-22T12:17:34;6.45;;;4.13;;
37305;SDS011;23193;42.656;21.170;2023-06-22T12:20:01;10.23;;;4.13;;
37305;SDS011;23193;42.656;21.170;2023-06-22T12:22:30;7.47;;;4.18;;
37305;SDS011;23193;42.656;21.170;2023-06-22T12:24:56;7.88;;;4.20;;
37305;SDS011;23193;42.656;21.170;2023-06-22T12:27:22;6.63;;;4.30;;
37305;SDS011;23193;42.656;21.170;2023-06-22T12:29:49;12.07;;;4.95;;
37305;SDS011;23193;42.656;21.170;2023-06-22T12:32:15;9.80;;;4.50;;
37305;SDS011;23193;42.656;21.170;2023-06-22T12:34:43;9.57;;;3.97;;
37305;SDS011;23193;42.656;21.170;2023-06-22T12:37:09;13.02;;;5.10;;
37305;SDS011;23193;42.656;21.170;2023-06-22T12:39:36;12.32;;;5.93;;
37305;SDS011;23193;42.656;21.170;2023-06-22T12:42:05;12.18;;;5.43;;
37305;SDS011;23193;42.656;21.170;2023-06-22T12:44:37;8.70;;;5.45;;
37305;SDS011;23193;42.656;21.170;2023-06-22T12:47:06;11.65;;;5.35;;
37305;SDS011;23193;42.656;21.170;2023-06-22T12:49:36;12.95;;;6.50;;
37305;SDS011;23193;42.656;21.170;2023-06-22T12:52:02;13.13;;;6.18;;
37305;SDS011;23193;42.656;21.170;2023-06-22T12:54:30;12.73;;;5.55;;
37305;SDS011;23193;42.656;21.170;2023-06-22T12:57:01;6.15;;;4.88;;
37305;SDS011;23193;42.656;21.170;2023-06-22T12:59:27;9.75;;;5.38;;
37305;SDS011;23193;42.656;21.170;2023-06-22T13:01:53;12.68;;;5.20;;
37305;SDS011;23193;42.656;21.170;2023-06-22T13:04:20;10.88;;;5.38;;
37305;SDS011;23193;42.656;21.170;2023-06-22T13:06:46;6.55;;;5.05;;
37305;SDS011;23193;42.656;21.170;2023-06-22T13:09:13;10.65;;;5.43;;
37305;SDS011;23193;42.656;21.170;2023-06-22T13:11:41;8.95;;;4.75;;
37305;SDS011;23193;42.656;21.170;2023-06-22T13:14:09;29.67;;;5.90;;
37305;SDS011;23193;42.656;21.170;2023-06-22T13:16:41;17.10;;;5.65;;
37305;SDS011;23193;42.656;21.170;2023-06-22T13:19:07;13.63;;;5.25;;
37305;SDS011;23193;42.656;21.170;2023-06-22T13:21:34;7.65;;;4.10;;
37305;SDS011;23193;42.656;21.170;2023-06-22T13:24:00;8.80;;;4.82;;
37305;SDS011;23193;42.656;21.170;2023-06-22T13:26:26;9.25;;;4.50;;
37305;SDS011;23193;42.656;21.170;2023-06-22T13:28:53;13.05;;;5.88;;
37305;SDS011;23193;42.656;21.170;2023-06-22T13:31:20;9.18;;;4.43;;
37305;SDS011;23193;42.656;21.170;2023-06-22T13:33:46;7.03;;;4.60;;
37305;SDS011;23193;42.656;21.170;2023-06-22T13:36:14;11.68;;;4.68;;
37305;SDS011;23193;42.656;21.170;2023-06-22T13:38:40;13.45;;;4.47;;
37305;SDS011;23193;42.656;21.170;2023-06-22T13:41:06;28.10;;;5.50;;
37305;SDS011;23193;42.656;21.170;2023-06-22T13:43:32;10.77;;;5.45;;
37305;SDS011;23193;42.656;21.170;2023-06-22T13:45:59;8.80;;;4.82;;
37305;SDS011;23193;42.656;21.170;2023-06-22T13:48:25;6.10;;;4.50;;
37305;SDS011;23193;42.656;21.170;2023-06-22T13:50:57;6.32;;;4.50;;
37305;SDS011;23193;42.656;21.170;2023-06-22T13:53:24;15.05;;;7.43;;
37305;SDS011;23193;42.656;21.170;2023-06-22T13:58:25;8.93;;;5.25;;
37305;SDS011;23193;42.656;21.170;2023-06-22T14:00:51;11.98;;;5.70;;
37305;SDS011;23193;42.656;21.170;2023-06-22T14:03:17;8.27;;;4.97;;
37305;SDS011;23193;42.656;21.170;2023-06-22T14:05:44;9.60;;;6.97;;
37305;SDS011;23193;42.656;21.170;2023-06-22T14:08:10;10.05;;;5.63;;
37305;SDS011;23193;42.656;21.170;2023-06-22T14:10:36;7.22;;;5.65;;
37305;SDS011;23193;42.656;21.170;2023-06-22T14:13:02;8.50;;;4.82;;
37305;SDS011;23193;42.656;21.170;2023-06-22T14:15:31;20.45;;;6.45;;
37305;SDS011;23193;42.656;21.170;2023-06-22T14:17:57;18.60;;;8.30;;
37305;SDS011;23193;42.656;21.170;2023-06-22T14:20:23;10.20;;;5.43;;
37305;SDS011;23193;42.656;21.170;2023-06-22T14:22:49;9.75;;;4.85;;
37305;SDS011;23193;42.656;21.170;2023-06-22T14:25:15;18.00;;;10.82;;
37305;SDS011;23193;42.656;21.170;2023-06-22T14:27:42;12.40;;;4.93;;
37305;SDS011;23193;42.656;21.170;2023-06-22T14:30:09;12.10;;;5.55;;